Naha, Japan
Current Conditions -  °F | °C
As of 2:00 AM on Wednesday 28 Jan 2015 (Local Time) from ROAH Reporting Station
Light Rain Light Rain  
Wind Chill: 63°   Ceiling: 4000
Heat Index: 63°   Visibility: 5mi
Dew Point: 54°   Wind: 7mph
Humidity: 72%   Direction: 40°NE
Pressure: 30.03"   Gusts: NA
Location:  26.21°N, 127.7°E
Report Text: ROAH 271700Z 04006KT 8000 -RA FEW025 BKN040 17/12 Q1017
Loading
Personal Weather Stations






























Interactive Weather Map New forecast layout! Learn more

10-Day Weather Forecast

Advertisements
Track Severe Weather on mobile